Impacts METAR Board
IDs:

KPWG - Mc Gregor Executive, TX, US

Updated at: 1300 UTC 14 Dec 2019
Potential Impact None Slight Moderate High
Time 14/01Z 14/02Z 14/03Z 14/04Z 14/05Z 14/06Z 14/07Z 14/08Z 14/09Z 14/10Z 14/11Z 14/12Z 14/13Z
Temp57 51 47 45 44 42 40 41 40 37 38 36 35
Dewpt47 46 44 43 41 41 38 40 38 36 37 35 34
Altim29.86 29.86 29.87 29.88 29.88 29.88 29.89 29.88 29.89 29.89 29.89 29.91 29.89
VIS10 10 10 10 10 10 10 10 10 9 10 10 10
CIG-- -- -- -- -- -- -- -- -- -- -- -- --
CoverCLRCLRCLRCLRCLRCLRCLRCLRCLRCLRCLRCLRCLR
FltCatVFRVFRVFRVFRVFRVFRVFRVFRVFRVFRVFRVFRVFR
WX--------------------------
WDir20025031000210031023028000
WSpd3 0 3 4 0 0 3 0 3 3 3 0 0
WGst-- -- -- -- -- -- -- -- -- -- -- -- --
Raw hourly METARs
KPWG 140056Z AUTO 02003KT 10SM CLR 14/08 A2986 RMK AO2 SLP111 T01390083 $
KPWG 140156Z AUTO 00000KT 10SM CLR 11/08 A2986 RMK AO2 SLP108 T01060078 $
KPWG 140256Z AUTO 25003KT 10SM CLR 08/07 A2987 RMK AO2 SLP114 T00830067 53008 $
KPWG 140356Z AUTO 31004KT 10SM CLR 07/06 A2988 RMK AO2 SLP117 T00720061 $
KPWG 140456Z AUTO 00000KT 10SM CLR 07/05 A2988 RMK AO2 SLP120 T00670050 $
KPWG 140556Z AUTO 00000KT 10SM CLR 06/05 A2988 RMK AO2 SLP118 T00560050 10150 20044 401940044 50003 $
KPWG 140656Z AUTO 21003KT 10SM CLR 04/03 A2989 RMK AO2 SLP119 T00440033 $
KPWG 140756Z AUTO 00000KT 10SM CLR 05/04 A2988 RMK AO2 SLP117 T00500044 $
KPWG 140856Z AUTO 31003KT 10SM CLR 04/03 A2989 RMK AO2 SLP120 T00440033 53002 $
KPWG 140956Z AUTO 23003KT 9SM CLR 03/02 A2989 RMK AO2 SLP121 T00280022 $
KPWG 141056Z AUTO 28003KT 10SM CLR 03/03 A2989 RMK AO2 SLP120 T00330028 $
KPWG 141156Z AUTO 00000KT 10SM CLR 02/02 A2991 RMK AO2 SLP126 T00220017 10061 20022 53005 FZRANO $
KPWG 141256Z AUTO 00000KT 10SM CLR 02/01 A2989 RMK AO2 SLP123 T00170011 FZRANO $



Page loaded:  13:32 UTC  |   05:32 AM Pacific  |   06:32 AM Mountain  |   07:32 AM Central  |   08:32 AM Eastern

 

ADVISORIES

FORECASTS

FORECASTS

OBSERVATIONS

USER TOOLS

ABOUT US